Time;durP1;ratioP1;P1;durP2;ratioP2;P2;SDS_P1;SDS_P2;PMS_P1;PMS_P2;Temp;Humidity;BMP_temperature;BMP_pressure;BME280_temperature;BME280_humidity;BME280_pressure;Samples;Min_cycle;Max_cycle;Signal;HPM_P1;HPM_P2
2021/12/19 00:00:24;;;;;;;34.08;22.65;;;8.20;99.90;;;;;;5008978;28;20521;-74
2021/12/19 00:03:29;;;;;;;34.63;21.70;;;8.30;99.90;;;;;;4999021;28;20038;-74
2021/12/19 00:11:05;;;;;;;34.08;22.90;;;8.20;99.90;;;;;;5003613;28;20034;-75
2021/12/19 00:13:31;;;;;;;36.60;22.55;;;8.20;99.90;;;;;;5003883;28;20519;-74
2021/12/19 00:15:57;;;;;;;35.25;23.00;;;8.20;99.90;;;;;;5003685;28;20022;-74
2021/12/19 00:18:23;;;;;;;36.25;23.30;;;8.20;99.90;;;;;;5003558;28;20054;-74
2021/12/19 00:20:49;;;;;;;36.45;22.67;;;8.20;99.90;;;;;;5004899;28;20499;-74
2021/12/19 00:23:15;;;;;;;34.88;23.08;;;8.20;99.90;;;;;;5006534;28;20041;-74
2021/12/19 00:25:42;;;;;;;34.70;22.90;;;8.20;99.90;;;;;;5006485;28;20505;-74
2021/12/19 00:28:08;;;;;;;32.20;22.20;;;8.10;99.90;;;;;;5006866;28;20095;-74
2021/12/19 00:30:34;;;;;;;34.72;22.13;;;8.00;99.90;;;;;;5007816;28;20037;-74
2021/12/19 00:32:59;;;;;;;37.40;22.55;;;7.90;99.90;;;;;;5007184;28;20022;-74
2021/12/19 00:35:26;;;;;;;36.15;22.52;;;7.90;99.90;;;;;;5006294;28;20030;-74
2021/12/19 00:37:52;;;;;;;34.58;22.52;;;7.80;99.90;;;;;;5006783;28;20418;-75
2021/12/19 00:40:19;;;;;;;33.10;22.63;;;7.70;99.90;;;;;;5006852;28;20471;-74
2021/12/19 00:42:51;;;;;;;35.20;22.52;;;7.60;99.90;;;;;;5005914;28;20030;-74
2021/12/19 00:45:27;;;;;;;35.60;23.05;;;7.50;99.90;;;;;;5004210;28;20518;-74
2021/12/19 00:47:53;;;;;;;36.65;22.83;;;7.50;99.90;;;;;;5007729;28;20518;-74
2021/12/19 00:50:20;;;;;;;39.95;23.95;;;7.50;99.90;;;;;;5006304;28;20505;-74
2021/12/19 00:52:46;;;;;;;38.53;24.23;;;7.50;99.90;;;;;;5005505;28;20109;-74
2021/12/19 00:55:17;;;;;;;37.80;24.27;;;7.40;99.90;;;;;;5005027;28;20458;-74
2021/12/19 00:57:42;;;;;;;36.90;23.77;;;7.40;99.90;;;;;;5008124;28;20032;-74
2021/12/19 01:00:12;;;;;;;36.05;23.33;;;7.40;99.90;;;;;;5009325;28;20029;-74
2021/12/19 01:02:38;;;;;;;37.38;23.17;;;7.30;99.90;;;;;;5008154;28;20030;-74
2021/12/19 01:05:05;;;;;;;39.00;23.73;;;7.20;99.90;;;;;;5008502;28;20064;-74
2021/12/19 01:07:31;;;;;;;37.58;23.08;;;7.10;99.90;;;;;;5008050;28;20021;-74
2021/12/19 01:09:57;;;;;;;36.55;23.67;;;7.10;99.90;;;;;;5007913;28;20105;-75
2021/12/19 01:12:24;;;;;;;39.58;25.80;;;7.10;99.90;;;;;;5011077;28;20018;-74
2021/12/19 01:14:50;;;;;;;39.13;24.13;;;7.00;99.90;;;;;;5008176;28;20030;-73
2021/12/19 01:17:16;;;;;;;37.03;24.27;;;7.00;99.90;;;;;;5004297;28;20406;-74
2021/12/19 01:19:44;;;;;;;36.15;23.52;;;7.00;99.90;;;;;;5003816;28;20022;-74
2021/12/19 01:22:10;;;;;;;36.88;22.92;;;7.00;99.90;;;;;;5005420;28;20026;-74
2021/12/19 01:24:36;;;;;;;36.03;23.90;;;7.10;99.90;;;;;;5008011;28;20037;-74
2021/12/19 01:27:02;;;;;;;35.22;22.70;;;7.20;99.90;;;;;;5005130;28;20029;-74
2021/12/19 01:29:28;;;;;;;36.35;22.42;;;7.20;99.90;;;;;;5003831;28;20025;-74
2021/12/19 01:31:54;;;;;;;33.40;21.08;;;7.20;99.90;;;;;;5004200;28;20026;-74
2021/12/19 01:34:20;;;;;;;35.28;23.42;;;7.10;99.90;;;;;;5004312;28;20479;-74
2021/12/19 01:36:45;;;;;;;38.85;23.58;;;7.10;99.90;;;;;;5015527;28;20111;-74
2021/12/19 01:39:14;;;;;;;35.30;21.75;;;7.10;99.90;;;;;;5011990;28;20026;-74
2021/12/19 01:41:51;;;;;;;33.17;22.00;;;7.10;99.90;;;;;;5013397;28;20061;-74
2021/12/19 01:44:18;;;;;;;35.17;22.23;;;7.10;99.90;;;;;;5014617;28;20034;-74
2021/12/19 01:46:46;;;;;;;35.13;22.05;;;7.10;99.90;;;;;;5014992;28;20108;-74
2021/12/19 01:49:13;;;;;;;33.75;22.88;;;7.10;99.90;;;;;;5015802;28;20543;-74
2021/12/19 01:51:39;;;;;;;36.35;23.45;;;7.00;99.90;;;;;;5007425;28;20403;-74
2021/12/19 01:54:05;;;;;;;36.47;22.08;;;7.00;99.90;;;;;;5004558;28;20029;-74
2021/12/19 01:56:32;;;;;;;35.47;22.20;;;7.00;99.90;;;;;;5011102;28;20109;-74
2021/12/19 01:58:58;;;;;;;35.83;22.75;;;7.10;99.90;;;;;;5011670;28;20029;-74
2021/12/19 02:01:24;;;;;;;37.80;22.50;;;7.00;99.90;;;;;;5007597;28;20471;-74
2021/12/19 02:03:50;;;;;;;34.85;21.30;;;7.00;99.90;;;;;;5010275;28;20426;-74
2021/12/19 02:06:16;;;;;;;39.08;23.10;;;6.90;99.90;;;;;;5003307;28;20030;-74
2021/12/19 02:08:42;;;;;;;34.30;22.48;;;6.90;99.90;;;;;;5009188;28;20073;-74
2021/12/19 02:11:08;;;;;;;33.40;22.08;;;6.90;99.90;;;;;;5011810;28;20502;-74
2021/12/19 02:13:34;;;;;;;35.58;22.80;;;6.90;99.90;;;;;;5008255;28;20026;-74
2021/12/19 02:16:00;;;;;;;34.95;22.95;;;6.90;99.90;;;;;;5009312;28;20116;-74
2021/12/19 02:18:26;;;;;;;34.00;21.95;;;7.00;99.90;;;;;;5003901;28;20034;-74
2021/12/19 02:20:54;;;;;;;39.70;23.48;;;6.90;99.90;;;;;;5008273;28;20022;-74
2021/12/19 02:23:22;;;;;;;38.08;22.92;;;6.90;99.90;;;;;;5011366;28;20028;-74
2021/12/19 02:25:49;;;;;;;38.28;23.17;;;6.90;99.90;;;;;;5010094;28;20156;-74
2021/12/19 02:28:15;;;;;;;37.70;22.33;;;6.90;99.90;;;;;;5016633;28;20018;-74
2021/12/19 02:30:41;;;;;;;37.90;23.23;;;6.90;99.90;;;;;;5015788;28;20536;-74
2021/12/19 02:33:12;;;;;;;35.65;23.33;;;6.90;99.90;;;;;;5012631;28;20033;-74
2021/12/19 02:35:39;;;;;;;37.70;23.60;;;6.90;99.90;;;;;;5015445;28;20030;-74
2021/12/19 02:48:09;;;;;;;36.03;23.17;;;6.90;99.90;;;;;;5015224;28;20030;-74
2021/12/19 02:48:49;;;;;;;36.70;23.13;;;6.70;99.90;;;;;;5011333;28;20024;-74
2021/12/19 02:51:15;;;;;;;37.80;23.95;;;6.60;99.90;;;;;;5011128;28;20414;-74
2021/12/19 02:53:42;;;;;;;34.42;22.40;;;6.60;99.90;;;;;;5015323;28;20087;-74
2021/12/19 02:56:10;;;;;;;37.03;22.65;;;6.60;99.90;;;;;;5015656;28;20108;-74
2021/12/19 02:58:38;;;;;;;38.30;23.60;;;6.60;99.90;;;;;;5015289;28;20034;-74
2021/12/19 03:01:08;;;;;;;35.55;22.55;;;6.50;99.90;;;;;;5017517;28;20056;-75
2021/12/19 03:03:34;;;;;;;35.55;23.15;;;6.50;99.90;;;;;;5013422;28;20095;-74
2021/12/19 03:06:00;;;;;;;39.38;24.05;;;6.40;99.90;;;;;;5003973;28;20431;-74
2021/12/19 03:08:26;;;;;;;36.40;23.20;;;6.40;99.90;;;;;;5012022;28;20033;-74
2021/12/19 03:18:33;;;;;;;37.92;23.33;;;6.30;99.90;;;;;;5006076;28;20029;-74
2021/12/19 03:20:59;;;;;;;39.63;22.58;;;6.20;99.90;;;;;;5007278;28;20026;-74
2021/12/19 03:23:25;;;;;;;41.03;23.98;;;6.20;99.90;;;;;;5011675;28;20060;-74
2021/12/19 03:25:50;;;;;;;39.17;24.10;;;6.20;99.90;;;;;;5009263;28;20501;-74
2021/12/19 03:28:17;;;;;;;38.88;23.13;;;6.10;99.90;;;;;;5007563;28;20113;-74
2021/12/19 03:30:45;;;;;;;41.45;24.02;;;6.00;99.90;;;;;;5007692;28;20025;-74
2021/12/19 03:33:12;;;;;;;33.72;21.40;;;6.00;99.90;;;;;;5004201;28;20385;-74
2021/12/19 03:35:38;;;;;;;36.85;22.85;;;6.00;99.90;;;;;;5010180;28;20030;-74
2021/12/19 03:38:07;;;;;;;36.17;21.95;;;5.90;99.90;;;;;;5010598;28;20057;-74
2021/12/19 03:40:35;;;;;;;42.47;24.15;;;5.90;99.90;;;;;;5007272;28;20032;-74
2021/12/19 03:43:06;;;;;;;37.03;21.40;;;5.90;99.90;;;;;;5015463;28;20018;-74
2021/12/19 03:45:34;;;;;;;37.95;22.20;;;5.80;99.90;;;;;;5012320;28;20042;-74
2021/12/19 03:48:01;;;;;;;34.67;21.90;;;5.80;99.90;;;;;;5013736;28;20041;-74
2021/12/19 03:50:27;;;;;;;36.05;22.75;;;5.80;99.90;;;;;;5013654;28;20530;-74
2021/12/19 03:52:55;;;;;;;36.38;23.00;;;5.80;99.90;;;;;;5015326;28;20398;-74
2021/12/19 03:55:24;;;;;;;37.55;23.15;;;5.80;99.90;;;;;;5015307;28;20033;-74
2021/12/19 03:57:50;;;;;;;36.33;21.88;;;5.80;99.90;;;;;;5009823;28;20033;-74
2021/12/19 04:00:24;;;;;;;36.13;22.00;;;5.70;99.90;;;;;;5010276;28;20018;-74
2021/12/19 04:02:56;;;;;;;38.47;22.83;;;5.80;99.90;;;;;;5010681;28;20124;-74
2021/12/19 04:05:22;;;;;;;38.30;22.60;;;5.80;99.90;;;;;;5012630;28;20044;-74
2021/12/19 04:07:48;;;;;;;37.25;23.30;;;5.90;99.90;;;;;;5009131;28;20557;-75
2021/12/19 04:10:14;;;;;;;36.60;23.17;;;5.90;99.90;;;;;;5007127;28;20030;-74
2021/12/19 04:12:42;;;;;;;34.08;21.23;;;5.80;99.90;;;;;;5006294;28;20108;-74
2021/12/19 04:15:09;;;;;;;37.17;22.38;;;5.90;99.90;;;;;;5006760;28;20036;-74
2021/12/19 04:17:35;;;;;;;35.30;22.92;;;5.80;99.90;;;;;;5012540;28;20117;-74
2021/12/19 04:20:01;;;;;;;38.60;23.00;;;5.80;99.90;;;;;;5010429;28;20057;-74
2021/12/19 04:22:27;;;;;;;35.17;21.25;;;5.80;99.90;;;;;;5008244;28;20065;-74
2021/12/19 04:24:53;;;;;;;35.92;22.38;;;5.80;99.90;;;;;;5007928;28;20030;-74
2021/12/19 04:27:19;;;;;;;34.75;21.27;;;5.70;99.90;;;;;;5004245;28;20031;-74
2021/12/19 04:29:45;;;;;;;37.42;22.13;;;5.70;99.90;;;;;;5012017;28;20032;-74
2021/12/19 04:32:12;;;;;;;36.85;22.13;;;5.70;99.90;;;;;;5011501;28;20025;-74
2021/12/19 04:34:38;;;;;;;40.25;23.90;;;5.70;99.90;;;;;;5007459;28;20026;-74
2021/12/19 04:37:19;;;;;;;39.53;23.55;;;5.60;99.90;;;;;;5007557;28;20059;-74
2021/12/19 04:40:00;;;;;;;39.55;22.25;;;5.60;99.90;;;;;;5007589;28;20044;-74
2021/12/19 05:14:03;;;;;;;36.75;22.83;;;5.40;99.90;;;;;;4890099;29;20037;-74
2021/12/19 05:15:02;;;;;;;39.83;22.92;;;5.50;99.90;;;;;;4882968;29;20134;-74
2021/12/19 05:17:30;;;;;;;40.58;24.08;;;5.50;99.90;;;;;;4881242;29;20037;-74
2021/12/19 05:22:38;;;;;;;36.60;23.15;;;5.50;99.90;;;;;;4928950;29;20082;-74
2021/12/19 05:25:14;;;;;;;39.50;23.70;;;5.50;99.90;;;;;;4990689;28;20042;-74
2021/12/19 05:27:54;;;;;;;39.33;23.00;;;5.50;99.90;;;;;;4991821;28;20081;-74
2021/12/19 05:30:20;;;;;;;35.42;22.90;;;5.50;99.90;;;;;;4986358;28;20114;-75
2021/12/19 05:32:47;;;;;;;38.38;22.15;;;5.60;99.90;;;;;;4994344;28;20043;-75
2021/12/19 05:35:21;;;;;;;39.95;22.83;;;5.60;99.90;;;;;;4996231;28;20032;-75
2021/12/19 05:45:59;;;;;;;37.35;23.50;;;5.90;99.90;;;;;;5014335;28;20072;-74
2021/12/19 05:48:25;;;;;;;32.67;22.55;;;5.90;99.90;;;;;;5003314;28;20483;-74
2021/12/19 05:50:51;;;;;;;34.95;22.80;;;5.90;99.90;;;;;;5004736;28;20148;-74
2021/12/19 05:53:16;;;;;;;37.03;22.65;;;6.00;99.90;;;;;;5014078;28;20030;-74
2021/12/19 05:55:42;;;;;;;34.95;21.55;;;6.00;99.90;;;;;;5014125;28;20026;-74
2021/12/19 05:58:08;;;;;;;35.13;23.20;;;6.00;99.90;;;;;;5014476;28;20033;-74
2021/12/19 06:00:34;;;;;;;36.72;22.25;;;6.00;99.90;;;;;;5010482;28;20442;-74
2021/12/19 06:03:02;;;;;;;31.98;21.67;;;6.00;99.90;;;;;;5013535;28;20140;-74
2021/12/19 06:05:28;;;;;;;30.95;21.10;;;6.10;99.90;;;;;;5012844;28;20465;-74
2021/12/19 06:07:53;;;;;;;35.35;21.20;;;6.10;99.90;;;;;;5014465;28;20548;-74
2021/12/19 06:10:20;;;;;;;35.42;22.27;;;6.10;99.90;;;;;;5014559;28;20030;-74
2021/12/19 06:12:46;;;;;;;37.50;22.60;;;6.10;99.90;;;;;;5013525;28;20022;-74
2021/12/19 06:15:13;;;;;;;36.65;22.23;;;6.00;99.90;;;;;;5011626;28;20030;-74
2021/12/19 06:17:40;;;;;;;36.30;22.55;;;6.10;99.90;;;;;;5014764;28;20033;-74
2021/12/19 06:20:07;;;;;;;37.75;24.05;;;6.10;99.90;;;;;;5014319;28;20491;-74
2021/12/19 06:22:33;;;;;;;35.75;23.25;;;6.10;99.90;;;;;;5014461;28;20029;-74
2021/12/19 06:24:59;;;;;;;36.97;23.67;;;6.10;99.90;;;;;;5017467;28;20511;-74
2021/12/19 06:27:24;;;;;;;38.35;22.88;;;6.10;99.90;;;;;;5014680;28;20025;-74
2021/12/19 06:29:50;;;;;;;38.17;23.17;;;6.10;99.90;;;;;;5017316;28;20034;-74
2021/12/19 06:32:19;;;;;;;39.13;23.48;;;6.20;99.90;;;;;;5017960;28;20034;-74
2021/12/19 06:34:45;;;;;;;38.10;22.38;;;6.20;99.90;;;;;;5018101;28;20045;-74
2021/12/19 06:37:11;;;;;;;35.20;21.83;;;6.20;99.90;;;;;;5018752;28;20022;-74
2021/12/19 06:39:38;;;;;;;35.33;21.70;;;6.20;99.90;;;;;;5015652;28;20034;-74
2021/12/19 06:42:05;;;;;;;37.22;22.15;;;6.20;99.90;;;;;;5014341;28;20022;-74
2021/12/19 06:44:32;;;;;;;36.92;22.23;;;6.20;99.90;;;;;;5014191;28;20092;-75
2021/12/19 06:46:58;;;;;;;39.25;22.83;;;6.10;99.90;;;;;;5015459;28;20050;-74
2021/12/19 06:49:23;;;;;;;33.92;22.80;;;6.00;99.90;;;;;;5011114;28;20031;-74
2021/12/19 06:51:49;;;;;;;36.63;22.02;;;6.10;99.90;;;;;;5015814;28;20033;-74
2021/12/19 06:54:15;;;;;;;35.15;21.48;;;6.10;99.90;;;;;;5006159;28;20064;-74
2021/12/19 06:56:40;;;;;;;35.60;22.23;;;6.10;99.90;;;;;;5007562;28;20022;-74
2021/12/19 06:59:06;;;;;;;37.63;22.48;;;6.10;99.90;;;;;;5011938;28;20034;-74
2021/12/19 07:01:32;;;;;;;35.72;22.80;;;6.10;99.90;;;;;;5011388;28;20100;-74
2021/12/19 07:03:58;;;;;;;34.53;22.02;;;6.10;99.90;;;;;;5008161;28;20147;-74
2021/12/19 07:06:24;;;;;;;35.20;21.50;;;6.00;99.90;;;;;;5005965;28;20376;-74
2021/12/19 07:08:50;;;;;;;37.58;22.40;;;6.00;99.90;;;;;;5006654;28;20068;-74
2021/12/19 07:11:15;;;;;;;35.47;21.92;;;5.90;99.90;;;;;;5010978;28;20088;-75
2021/12/19 07:13:41;;;;;;;34.00;21.75;;;5.90;99.90;;;;;;5012029;28;20026;-75
2021/12/19 07:16:07;;;;;;;36.47;22.38;;;5.80;99.90;;;;;;5008273;28;20502;-76
2021/12/19 07:18:34;;;;;;;36.78;22.52;;;5.70;99.90;;;;;;5006829;28;20033;-75
2021/12/19 07:20:59;;;;;;;35.13;22.20;;;5.60;99.90;;;;;;5006284;28;20027;-75
2021/12/19 07:23:27;;;;;;;35.95;23.45;;;5.50;99.90;;;;;;5010015;28;20080;-75
2021/12/19 07:25:53;;;;;;;36.80;23.05;;;5.50;99.90;;;;;;5012297;28;20041;-75
2021/12/19 07:28:18;;;;;;;39.90;23.40;;;5.40;99.90;;;;;;5009403;28;20022;-75
2021/12/19 07:30:44;;;;;;;37.63;23.08;;;5.30;99.90;;;;;;5007641;28;20060;-75
2021/12/19 07:33:11;;;;;;;38.60;23.80;;;5.30;99.90;;;;;;5005443;28;20034;-75
2021/12/19 07:35:41;;;;;;;36.78;22.85;;;5.30;99.90;;;;;;5008432;28;20034;-75
2021/12/19 07:38:09;;;;;;;36.83;22.23;;;5.20;99.90;;;;;;5012309;28;20031;-76
2021/12/19 07:40:39;;;;;;;37.65;22.55;;;5.20;99.90;;;;;;5010885;28;20064;-77
2021/12/19 07:43:10;;;;;;;37.28;22.80;;;5.30;99.90;;;;;;5007654;28;20092;-75
2021/12/19 07:45:37;;;;;;;38.53;23.05;;;5.40;99.90;;;;;;5006333;28;20051;-75
2021/12/19 07:48:04;;;;;;;40.00;23.48;;;5.40;99.90;;;;;;5004175;28;20498;-75
2021/12/19 07:50:31;;;;;;;40.08;23.77;;;5.40;99.90;;;;;;5004042;28;20030;-75
2021/12/19 07:52:57;;;;;;;37.28;23.95;;;5.50;99.90;;;;;;5012280;28;20018;-76
2021/12/19 07:55:24;;;;;;;40.00;24.52;;;5.50;99.90;;;;;;5009229;28;20497;-73
2021/12/19 07:57:49;;;;;;;36.17;23.00;;;5.50;99.90;;;;;;5007425;28;20490;-76
2021/12/19 08:00:18;;;;;;;36.60;23.38;;;5.50;99.90;;;;;;5004571;28;20088;-77
2021/12/19 08:02:46;;;;;;;36.85;22.85;;;5.60;99.90;;;;;;5008159;28;20034;-75
2021/12/19 08:05:14;;;;;;;38.58;23.58;;;5.70;99.90;;;;;;5011809;28;20499;-75
2021/12/19 08:07:40;;;;;;;37.10;23.45;;;5.80;99.90;;;;;;5011112;28;20113;-75
2021/12/19 08:12:36;;;;;;;38.03;21.73;;;6.00;99.90;;;;;;5014181;28;20024;-76
2021/12/19 08:15:03;;;;;;;36.15;23.80;;;6.00;99.90;;;;;;5010868;28;20026;-75
2021/12/19 08:17:31;;;;;;;37.40;23.42;;;6.10;99.90;;;;;;5015700;28;20057;-75
2021/12/19 08:19:57;;;;;;;39.58;24.58;;;6.30;99.90;;;;;;5016099;28;20449;-76
2021/12/19 08:22:23;;;;;;;36.42;23.33;;;6.40;99.90;;;;;;5015488;28;20048;-76
2021/12/19 08:24:50;;;;;;;37.05;22.60;;;6.50;99.90;;;;;;5015303;28;20522;-75
2021/12/19 08:27:16;;;;;;;34.25;22.65;;;6.70;99.90;;;;;;5012647;28;20398;-75
2021/12/19 08:29:42;;;;;;;36.70;23.55;;;6.80;99.90;;;;;;5011536;28;20111;-75
2021/12/19 08:32:08;;;;;;;38.28;23.40;;;7.00;99.90;;;;;;5015734;28;20061;-76
2021/12/19 08:34:34;;;;;;;37.42;24.20;;;7.40;99.90;;;;;;5016115;28;20057;-76
2021/12/19 08:37:02;;;;;;;39.25;24.85;;;9.10;99.90;;;;;;5013861;28;20021;-78
2021/12/19 08:39:28;;;;;;;36.47;24.20;;;11.60;93.90;;;;;;5012361;28;20034;-76
2021/12/19 08:41:54;;;;;;;36.17;25.38;;;13.70;87.80;;;;;;5008728;28;20655;-76
2021/12/19 08:44:20;;;;;;;38.20;25.13;;;15.00;79.70;;;;;;5015664;28;20156;-76
2021/12/19 08:46:46;;;;;;;36.13;23.98;;;15.90;74.30;;;;;;5010977;28;20121;-76
2021/12/19 08:49:12;;;;;;;35.13;24.30;;;16.40;71.30;;;;;;5004197;28;20034;-75
2021/12/19 08:51:39;;;;;;;36.70;24.15;;;16.90;68.80;;;;;;5003688;28;20026;-75
2021/12/19 08:54:06;;;;;;;33.20;23.58;;;17.10;67.20;;;;;;5001272;28;20050;-76
2021/12/19 08:56:32;;;;;;;31.30;23.10;;;17.30;66.60;;;;;;5007072;28;20108;-74
2021/12/19 08:58:59;;;;;;;32.03;22.38;;;17.60;64.80;;;;;;5008456;28;20041;-79
2021/12/19 09:01:25;;;;;;;31.60;23.38;;;17.50;63.90;;;;;;5012092;28;20052;-80
2021/12/19 09:03:51;;;;;;;33.60;23.92;;;15.40;65.50;;;;;;5016243;28;20471;-79
2021/12/19 09:06:17;;;;;;;32.33;23.77;;;13.30;71.20;;;;;;5007972;28;20589;-79
2021/12/19 09:08:43;;;;;;;32.92;23.83;;;12.00;76.50;;;;;;5011047;28;20030;-79
2021/12/19 09:11:09;;;;;;;34.17;24.48;;;11.20;80.50;;;;;;5008600;28;20136;-79
2021/12/19 09:13:35;;;;;;;32.88;23.50;;;11.40;83.00;;;;;;5012723;28;20030;-79
2021/12/19 09:16:01;;;;;;;36.90;25.63;;;11.00;83.60;;;;;;5012400;28;20083;-79
2021/12/19 09:18:28;;;;;;;33.08;23.00;;;10.60;85.60;;;;;;5000843;28;20434;-79
2021/12/19 09:20:54;;;;;;;32.70;23.17;;;10.40;86.50;;;;;;5011328;28;20049;-78
2021/12/19 09:23:20;;;;;;;32.35;23.13;;;10.20;88.00;;;;;;5011572;28;20030;-80
2021/12/19 09:25:45;;;;;;;32.17;22.63;;;10.30;89.10;;;;;;5011340;28;20057;-72
2021/12/19 09:28:11;;;;;;;31.73;21.90;;;10.60;88.30;;;;;;5012653;28;20355;-71
2021/12/19 09:30:37;;;;;;;31.42;22.15;;;10.70;87.70;;;;;;5010913;28;20068;-73
2021/12/19 09:33:04;;;;;;;33.00;22.90;;;10.50;88.50;;;;;;5009761;28;20026;-74
2021/12/19 09:35:34;;;;;;;34.30;23.00;;;10.30;89.10;;;;;;5011192;28;20080;-76
2021/12/19 09:38:00;;;;;;;33.58;22.27;;;10.10;90.30;;;;;;5012162;28;20088;-75
2021/12/19 09:40:33;;;;;;;33.40;22.75;;;9.90;90.80;;;;;;5014892;28;20442;-76
2021/12/19 09:43:02;;;;;;;33.80;23.35;;;9.70;91.30;;;;;;5005760;28;20032;-76
2021/12/19 09:45:29;;;;;;;33.03;23.10;;;9.70;92.10;;;;;;5007075;28;20057;-76
2021/12/19 09:47:55;;;;;;;35.85;22.63;;;9.70;92.20;;;;;;5004762;28;20058;-76
2021/12/19 09:50:21;;;;;;;35.00;23.67;;;9.60;92.40;;;;;;5010265;28;20034;-76
2021/12/19 09:52:47;;;;;;;35.55;24.52;;;9.60;92.60;;;;;;5004220;28;20100;-75
2021/12/19 09:55:18;;;;;;;37.50;24.10;;;9.70;92.70;;;;;;5011045;28;20026;-76
2021/12/19 09:57:44;;;;;;;34.15;23.15;;;9.80;92.50;;;;;;5006264;28;20099;-76
2021/12/19 10:00:10;;;;;;;33.33;23.15;;;10.00;92.00;;;;;;5010812;28;20022;-76
2021/12/19 10:02:36;;;;;;;32.60;23.23;;;10.30;92.00;;;;;;5011203;28;20061;-75
2021/12/19 10:05:19;;;;;;;33.88;23.52;;;10.30;91.50;;;;;;5008475;28;20042;-75
2021/12/19 10:07:56;;;;;;;34.00;23.05;;;10.40;91.70;;;;;;5001631;28;20026;-76
2021/12/19 10:10:47;;;;;;;34.60;23.50;;;10.50;91.40;;;;;;5008357;28;20038;-76
2021/12/19 10:13:14;;;;;;;32.15;22.88;;;10.60;91.40;;;;;;5006565;28;20415;-76
2021/12/19 10:15:42;;;;;;;33.33;22.85;;;10.80;91.30;;;;;;5010186;28;20483;-76
2021/12/19 10:18:09;;;;;;;31.52;22.27;;;10.80;91.20;;;;;;5009966;28;20494;-75
2021/12/19 10:20:46;;;;;;;33.05;21.67;;;10.80;91.40;;;;;;5008661;28;20036;-76
2021/12/19 10:23:24;;;;;;;31.40;21.17;;;10.90;91.00;;;;;;5008681;28;20034;-76
2021/12/19 10:26:06;;;;;;;30.20;21.70;;;10.80;90.80;;;;;;5009688;28;20079;-76
2021/12/19 10:28:33;;;;;;;33.70;22.45;;;11.00;90.90;;;;;;5007641;28;20515;-75
2021/12/19 10:31:01;;;;;;;32.92;23.58;;;11.00;90.50;;;;;;5009301;28;20544;-77
2021/12/19 10:33:32;;;;;;;31.85;22.63;;;11.00;90.90;;;;;;5009798;28;20498;-76
2021/12/19 10:36:03;;;;;;;33.35;22.35;;;11.10;90.90;;;;;;5010529;28;20026;-76
2021/12/19 10:38:50;;;;;;;35.28;23.17;;;11.10;90.60;;;;;;5008193;28;20037;-77
2021/12/19 10:41:20;;;;;;;36.83;22.90;;;11.20;90.80;;;;;;5008104;28;20434;-78
2021/12/19 10:46:37;;;;;;;32.75;22.88;;;11.30;90.50;;;;;;5008298;28;20056;-77
2021/12/19 10:49:04;;;;;;;34.17;22.98;;;11.30;90.60;;;;;;5004464;28;20260;-78
2021/12/19 10:51:36;;;;;;;36.78;25.58;;;11.50;90.70;;;;;;5010014;28;20124;-78
2021/12/19 10:54:07;;;;;;;32.05;23.15;;;11.60;90.80;;;;;;5009361;28;20030;-77
2021/12/19 10:56:37;;;;;;;38.55;25.80;;;11.70;90.50;;;;;;5007936;28;20900;-80
2021/12/19 10:59:09;;;;;;;40.50;25.45;;;11.90;90.10;;;;;;5008878;28;20391;-80
2021/12/19 11:01:38;;;;;;;34.80;25.40;;;12.10;89.60;;;;;;5010525;28;20057;-80
2021/12/19 11:04:04;;;;;;;35.80;23.55;;;12.20;89.50;;;;;;5010394;28;20034;-77
2021/12/19 11:06:30;;;;;;;34.60;24.23;;;12.40;88.60;;;;;;5012903;28;20033;-80
2021/12/19 11:08:58;;;;;;;32.53;23.63;;;12.60;88.10;;;;;;5011571;28;20502;-76
2021/12/19 11:11:31;;;;;;;39.95;26.55;;;12.50;87.60;;;;;;5008968;28;20034;-77
2021/12/19 11:13:58;;;;;;;33.80;24.23;;;12.20;87.90;;;;;;5015847;28;20499;-77
2021/12/19 11:16:24;;;;;;;44.28;28.38;;;12.10;89.40;;;;;;5017210;28;20109;-77
2021/12/19 11:18:50;;;;;;;41.55;28.38;;;12.30;89.20;;;;;;5008643;28;20555;-77
2021/12/19 11:21:17;;;;;;;33.40;24.58;;;12.50;88.60;;;;;;5005832;28;20045;-78
2021/12/19 11:23:43;;;;;;;37.15;27.10;;;12.70;87.30;;;;;;5016650;28;20019;-78
2021/12/19 11:26:10;;;;;;;35.70;26.25;;;12.80;86.50;;;;;;5012320;28;20025;-78
2021/12/19 11:28:37;;;;;;;28.80;21.13;;;12.90;86.30;;;;;;5008858;28;20022;-76
2021/12/19 11:31:04;;;;;;;30.27;21.98;;;13.10;85.70;;;;;;5008810;28;20479;-77
2021/12/19 11:34:06;;;;;;;31.35;21.25;;;13.20;85.40;;;;;;5004877;28;20480;-77
2021/12/19 11:36:37;;;;;;;28.55;20.63;;;13.30;85.00;;;;;;5022690;28;20042;-77
2021/12/19 11:39:06;;;;;;;27.80;20.30;;;13.50;84.80;;;;;;5024582;28;20046;-76
2021/12/19 11:41:32;;;;;;;30.05;21.02;;;13.60;84.60;;;;;;5027181;28;20037;-76
2021/12/19 11:44:02;;;;;;;28.48;21.13;;;13.70;84.20;;;;;;5026470;28;20164;-78
2021/12/19 11:46:59;;;;;;;32.95;22.05;;;13.80;84.40;;;;;;5023172;28;20199;-77
2021/12/19 11:49:27;;;;;;;33.28;23.40;;;13.90;84.00;;;;;;5020806;28;20557;-74
2021/12/19 11:52:30;;;;;;;31.30;21.70;;;14.00;83.20;;;;;;5024347;28;20040;-74
2021/12/19 11:55:14;;;;;;;27.55;19.77;;;14.00;84.10;;;;;;5023802;28;20037;-74
2021/12/19 11:58:01;;;;;;;27.40;21.07;;;14.10;81.80;;;;;;5021298;28;20522;-75
2021/12/19 12:00:29;;;;;;;31.98;21.73;;;14.20;82.80;;;;;;5018690;28;20061;-73
2021/12/19 12:03:21;;;;;;;30.35;21.23;;;14.30;82.30;;;;;;5024846;28;20502;-74
2021/12/19 12:05:53;;;;;;;31.73;21.98;;;14.40;82.40;;;;;;5031301;28;20106;-74
2021/12/19 12:08:24;;;;;;;29.13;21.60;;;14.50;81.40;;;;;;5029870;28;20027;-74
2021/12/19 12:13:40;;;;;;;29.77;21.25;;;14.80;81.30;;;;;;5016214;28;20414;-73
2021/12/19 12:16:11;;;;;;;27.27;20.40;;;15.10;80.50;;;;;;5007317;28;20033;-72
2021/12/19 12:18:41;;;;;;;26.80;20.70;;;15.60;79.50;;;;;;5004499;28;20030;-73
2021/12/19 12:21:21;;;;;;;30.48;20.25;;;15.70;78.30;;;;;;5004112;28;20046;-71
2021/12/19 12:23:58;;;;;;;25.35;19.42;;;16.00;77.50;;;;;;5012298;28;20042;-72
2021/12/19 12:26:26;;;;;;;26.42;17.90;;;16.20;76.40;;;;;;5012567;28;20040;-72
2021/12/19 12:28:52;;;;;;;25.20;18.88;;;16.30;75.80;;;;;;5004649;28;20033;-72
2021/12/19 12:31:18;;;;;;;24.45;18.20;;;16.50;75.80;;;;;;5010778;28;20026;-72
2021/12/19 12:33:43;;;;;;;27.10;19.00;;;16.60;75.80;;;;;;5005876;28;20437;-72
2021/12/19 12:36:10;;;;;;;24.30;18.65;;;16.80;74.90;;;;;;5005451;28;20021;-72
2021/12/19 12:38:36;;;;;;;27.08;19.83;;;16.90;74.20;;;;;;5010239;28;20080;-72
2021/12/19 12:41:08;;;;;;;27.85;19.40;;;17.00;74.20;;;;;;5010823;28;20041;-72
2021/12/19 12:43:42;;;;;;;25.73;19.23;;;17.20;74.30;;;;;;5011871;28;20402;-72
2021/12/19 12:46:14;;;;;;;;;;;17.30;73.00;;;;;;5009276;28;20057;-73
2021/12/19 12:48:57;;;;;;;22.60;17.33;;;17.50;73.10;;;;;;5005467;28;19909;-72
2021/12/19 12:51:28;;;;;;;23.02;16.63;;;17.60;72.00;;;;;;5004465;28;20117;-72
2021/12/19 12:53:57;;;;;;;22.95;17.05;;;17.50;72.00;;;;;;5007049;28;20030;-72
2021/12/19 12:56:42;;;;;;;21.85;15.98;;;17.90;71.30;;;;;;5008330;28;20019;-72
2021/12/19 12:59:08;;;;;;;21.20;16.10;;;18.00;70.70;;;;;;5004877;28;20364;-72
2021/12/19 13:01:37;;;;;;;20.20;15.95;;;18.40;69.70;;;;;;5010196;28;20041;-73
2021/12/19 13:04:05;;;;;;;20.52;15.63;;;19.30;67.00;;;;;;5006002;28;20056;-73
2021/12/19 13:07:00;;;;;;;17.92;14.98;;;20.90;64.80;;;;;;5004342;28;20040;-73
2021/12/19 13:09:39;;;;;;;18.55;14.45;;;24.70;57.00;;;;;;4999484;28;20042;-73
2021/12/19 13:12:10;;;;;;;20.52;14.85;;;27.20;51.90;;;;;;5008402;28;20080;-73
2021/12/19 13:14:45;;;;;;;16.77;13.90;;;28.50;47.90;;;;;;5014777;28;20553;-73
2021/12/19 13:17:14;;;;;;;15.75;13.10;;;29.20;45.70;;;;;;5013989;28;20510;-73
2021/12/19 13:20:08;;;;;;;20.27;13.80;;;29.80;44.50;;;;;;5014736;28;20019;-73
2021/12/19 13:22:37;;;;;;;17.17;14.52;;;30.40;43.50;;;;;;5011670;28;20093;-74
2021/12/19 13:25:11;;;;;;;17.27;14.13;;;30.40;42.40;;;;;;5015014;28;20116;-73
2021/12/19 13:27:40;;;;;;;18.27;13.55;;;30.80;42.20;;;;;;5012405;28;20038;-73
2021/12/19 13:30:12;;;;;;;15.60;12.57;;;30.70;41.50;;;;;;5008739;28;20026;-73
2021/12/19 13:32:47;;;;;;;15.18;12.57;;;30.70;41.30;;;;;;5015815;28;20466;-73
2021/12/19 13:35:18;;;;;;;15.90;13.70;;;30.60;40.90;;;;;;5018486;28;20092;-73
2021/12/19 13:38:04;;;;;;;14.85;12.45;;;29.70;41.60;;;;;;5018678;28;20018;-73
2021/12/19 13:41:00;;;;;;;15.10;12.68;;;28.20;42.50;;;;;;5018321;28;20037;-72
2021/12/19 13:43:34;;;;;;;14.27;11.30;;;24.90;47.00;;;;;;5018452;28;20501;-73
2021/12/19 13:46:01;;;;;;;15.20;12.65;;;24.20;48.90;;;;;;5017998;28;20532;-72
2021/12/19 13:48:31;;;;;;;14.52;12.07;;;24.90;48.70;;;;;;5007218;28;20026;-73
2021/12/19 13:50:58;;;;;;;14.48;11.00;;;26.10;47.00;;;;;;5007058;28;20050;-73